createdAt,value
2018-11-21T00:01:24.260Z,45.93
2018-11-21T00:03:52.701Z,46.57
2018-11-21T00:06:21.165Z,49.70
2018-11-21T00:08:49.609Z,45.50
2018-11-21T00:11:18.020Z,43.43
2018-11-21T00:13:46.445Z,45.60
2018-11-21T00:16:14.870Z,50.60
2018-11-21T00:18:43.306Z,42.40
2018-11-21T00:21:11.692Z,45.70
2018-11-21T00:23:40.127Z,48.40
2018-11-21T00:26:08.537Z,42.63
2018-11-21T00:28:36.941Z,45.57
2018-11-21T00:31:05.553Z,47.07
2018-11-21T00:33:33.967Z,47.87
2018-11-21T00:36:02.427Z,43.47
2018-11-21T00:38:30.850Z,45.23
2018-11-21T00:40:59.296Z,42.77
2018-11-21T00:43:27.672Z,45.13
2018-11-21T00:45:56.098Z,43.13
2018-11-21T00:48:24.546Z,46.13
2018-11-21T00:50:52.950Z,45.87
2018-11-21T00:53:21.363Z,47.30
2018-11-21T00:55:49.750Z,45.57
2018-11-21T00:58:18.204Z,43.13
2018-11-21T01:00:46.591Z,45.03
2018-11-21T01:03:15.035Z,50.40
2018-11-21T01:05:43.482Z,45.17
2018-11-21T01:08:12.212Z,49.83
2018-11-21T01:10:40.680Z,48.80
2018-11-21T01:13:09.101Z,46.43
2018-11-21T01:15:37.509Z,50.07
2018-11-21T01:18:06.146Z,44.87
2018-11-21T01:20:34.590Z,47.20
2018-11-21T01:23:02.977Z,43.70
2018-11-21T01:25:31.401Z,50.83
2018-11-21T01:27:59.811Z,49.97
2018-11-21T01:30:28.242Z,47.73
2018-11-21T01:32:56.640Z,51.43
2018-11-21T01:35:25.064Z,42.83
2018-11-21T01:37:53.482Z,49.10
2018-11-21T01:40:21.877Z,48.00
2018-11-21T01:42:50.291Z,48.60
2018-11-21T01:45:18.701Z,50.63
2018-11-21T01:47:47.097Z,47.50
2018-11-21T01:50:15.531Z,50.23
2018-11-21T01:52:43.943Z,49.60
2018-11-21T01:55:12.366Z,49.97
2018-11-21T01:57:40.760Z,50.73
2018-11-21T02:00:10.202Z,49.33
2018-11-21T02:02:38.603Z,50.07
2018-11-21T02:05:07.026Z,46.07
2018-11-21T02:07:35.433Z,45.37
2018-11-21T02:10:03.862Z,47.47
2018-11-21T02:12:32.294Z,46.23
2018-11-21T02:15:00.736Z,47.30
2018-11-21T02:17:29.181Z,44.47
2018-11-21T02:19:57.599Z,46.00
2018-11-21T02:22:26.000Z,46.33
2018-11-21T02:24:54.381Z,44.17
2018-11-21T02:27:22.770Z,47.33
2018-11-21T02:29:51.234Z,46.77
2018-11-21T02:32:19.645Z,43.20
2018-11-21T02:34:48.024Z,47.00
2018-11-21T02:37:16.465Z,46.00
2018-11-21T02:39:44.836Z,43.73
2018-11-21T02:42:13.229Z,47.07
2018-11-21T02:44:41.645Z,48.73
2018-11-21T02:47:10.052Z,43.50
2018-11-21T02:49:38.518Z,42.27
2018-11-21T02:52:06.925Z,45.43
2018-11-21T02:54:35.305Z,40.67
2018-11-21T02:57:21.226Z,46.43
2018-11-21T02:59:51.196Z,42.47
2018-11-21T03:02:19.592Z,42.90
2018-11-21T03:04:48.042Z,44.60
2018-11-21T03:07:16.456Z,39.87
2018-11-21T03:09:44.847Z,42.47
2018-11-21T03:12:13.258Z,43.20
2018-11-21T03:14:41.684Z,39.80
2018-11-21T03:17:10.076Z,42.90
2018-11-21T03:19:38.468Z,40.40
2018-11-21T03:22:06.886Z,41.20
2018-11-21T03:24:35.263Z,44.60
2018-11-21T03:27:03.685Z,42.97
2018-11-21T03:29:32.079Z,38.33
2018-11-21T03:32:00.503Z,42.53
2018-11-21T03:34:28.924Z,38.47
2018-11-21T03:36:57.338Z,40.60
2018-11-21T03:39:26.391Z,42.93
2018-11-21T03:41:54.762Z,44.17
2018-11-21T03:44:23.178Z,43.93
2018-11-21T03:46:51.617Z,42.63
2018-11-21T03:49:19.962Z,42.87
2018-11-21T03:51:48.379Z,48.13
2018-11-21T03:54:16.796Z,45.37
2018-11-21T03:56:45.163Z,46.67
2018-11-21T03:59:13.570Z,48.40
2018-11-21T04:01:42.003Z,41.57
2018-11-21T04:04:10.843Z,47.37
2018-11-21T04:06:39.274Z,46.33
2018-11-21T04:09:09.558Z,48.43
2018-11-21T04:11:37.965Z,47.53
2018-11-21T04:14:06.517Z,46.03
2018-11-21T04:16:35.148Z,44.47
2018-11-21T04:19:03.503Z,46.13
2018-11-21T04:21:31.929Z,45.87
2018-11-21T04:24:00.317Z,44.57
2018-11-21T04:26:28.732Z,44.37
2018-11-21T04:28:57.161Z,48.43
2018-11-21T04:31:25.567Z,45.80
2018-11-21T04:33:54.026Z,45.83
2018-11-21T04:36:22.431Z,43.30
2018-11-21T04:38:50.828Z,44.43
2018-11-21T04:41:19.269Z,46.37
2018-11-21T04:43:47.709Z,44.67
2018-11-21T04:46:16.197Z,47.40
2018-11-21T04:48:44.611Z,44.13
2018-11-21T04:51:13.052Z,47.40
2018-11-21T04:53:41.454Z,44.33
2018-11-21T04:56:09.848Z,42.73
2018-11-21T04:58:38.291Z,43.77
2018-11-21T05:01:06.682Z,40.17
2018-11-21T05:03:35.085Z,42.77
2018-11-21T05:06:03.509Z,41.30
2018-11-21T05:08:31.934Z,43.43
2018-11-21T05:11:00.411Z,45.43
2018-11-21T05:13:28.861Z,38.93
2018-11-21T05:15:57.278Z,40.53
2018-11-21T05:18:25.682Z,43.47
2018-11-21T05:20:54.064Z,44.93
2018-11-21T05:23:22.502Z,43.27
2018-11-21T05:25:50.892Z,42.47
2018-11-21T05:28:19.302Z,42.47
2018-11-21T05:30:47.733Z,44.13
2018-11-21T05:33:16.156Z,43.87
2018-11-21T05:35:44.569Z,44.83
2018-11-21T05:38:13.018Z,48.83
2018-11-21T05:40:41.410Z,42.93
2018-11-21T05:43:09.799Z,46.17
2018-11-21T05:45:38.243Z,47.20
2018-11-21T05:48:07.064Z,47.47
2018-11-21T05:50:35.495Z,46.17
2018-11-21T05:53:03.888Z,45.13
2018-11-21T05:55:32.308Z,48.07
2018-11-21T05:58:00.692Z,46.07
2018-11-21T06:00:29.117Z,49.87
2018-11-21T06:02:57.527Z,47.63
2018-11-21T06:05:25.970Z,44.67
2018-11-21T06:07:54.368Z,50.20
2018-11-21T06:10:22.749Z,49.77
2018-11-21T06:12:51.175Z,51.93
2018-11-21T06:15:19.559Z,46.40
2018-11-21T06:17:48.321Z,51.47
2018-11-21T06:20:16.445Z,51.17
2018-11-21T06:22:45.200Z,48.60
2018-11-21T06:25:13.987Z,45.33
2018-11-21T06:27:42.543Z,50.63
2018-11-21T06:30:12.905Z,50.17
2018-11-21T06:32:41.735Z,44.37
2018-11-21T06:35:11.162Z,46.63
2018-11-21T06:37:39.997Z,51.97
2018-11-21T06:40:11.208Z,51.27
2018-11-21T06:42:39.686Z,50.40
2018-11-21T06:45:09.405Z,47.97
2018-11-21T06:47:37.820Z,51.80
2018-11-21T06:50:07.284Z,49.43
2018-11-21T06:52:35.897Z,46.83
2018-11-21T06:55:05.500Z,51.80
2018-11-21T06:57:34.022Z,49.73
2018-11-21T07:00:02.452Z,48.60
2018-11-21T07:02:30.853Z,50.97
2018-11-21T07:04:59.263Z,48.97
2018-11-21T07:07:27.736Z,49.23
2018-11-21T07:09:56.226Z,49.87
2018-11-21T07:12:24.664Z,52.47
2018-11-21T07:14:53.200Z,52.37
2018-11-21T07:17:21.615Z,44.93
2018-11-21T07:19:50.022Z,47.07
2018-11-21T07:22:18.456Z,49.67
2018-11-21T07:24:46.848Z,46.17
2018-11-21T07:27:15.245Z,48.87
2018-11-21T07:29:43.661Z,45.73
2018-11-21T07:32:12.105Z,46.03
2018-11-21T07:34:40.523Z,46.53
2018-11-21T07:37:09.034Z,47.87
2018-11-21T07:39:37.443Z,45.87
2018-11-21T07:42:06.084Z,47.93
2018-11-21T07:44:34.563Z,44.97
2018-11-21T07:47:02.984Z,44.67
2018-11-21T07:49:31.470Z,41.23
2018-11-21T07:51:59.917Z,44.07
2018-11-21T07:54:28.349Z,43.87
2018-11-21T07:57:26.844Z,41.20
2018-11-21T08:00:52.960Z,44.03
2018-11-21T08:03:22.197Z,43.27
2018-11-21T08:06:18.838Z,48.27
2018-11-21T08:09:15.156Z,40.90
2018-11-21T08:12:01.242Z,44.47
2018-11-21T08:14:54.867Z,40.27
2018-11-21T08:17:40.022Z,41.47
2018-11-21T08:20:26.632Z,41.27
2018-11-21T08:23:14.191Z,41.77
2018-11-21T08:26:00.560Z,40.33
2018-11-21T08:28:30.112Z,39.50
2018-11-21T08:30:58.755Z,38.33
2018-11-21T08:33:33.883Z,41.47
2018-11-21T08:35:56.914Z,39.87
2018-11-21T08:38:25.393Z,38.23
2018-11-21T08:40:53.799Z,39.60
2018-11-21T08:43:22.300Z,38.13
2018-11-21T08:45:50.921Z,40.00
2018-11-21T08:48:20.367Z,39.57
2018-11-21T08:50:48.853Z,37.47
2018-11-21T08:53:17.377Z,42.50
2018-11-21T08:55:45.929Z,39.10
2018-11-21T08:58:14.422Z,40.20
2018-11-21T09:00:43.219Z,38.97
2018-11-21T09:03:11.642Z,39.90
2018-11-21T09:05:41.155Z,41.77
2018-11-21T09:08:09.632Z,36.80
2018-11-21T09:10:38.098Z,39.63
2018-11-21T09:13:06.595Z,39.57
2018-11-21T09:15:35.056Z,39.27
2018-11-21T09:18:03.539Z,37.97
2018-11-21T09:20:32.002Z,39.93
2018-11-21T09:23:00.442Z,36.40
2018-11-21T09:25:28.861Z,37.53
2018-11-21T09:27:57.320Z,37.03
2018-11-21T09:30:28.929Z,39.70
2018-11-21T09:33:01.300Z,35.23
2018-11-21T09:35:36.231Z,36.13
2018-11-21T09:38:17.171Z,38.83
2018-11-21T09:40:45.965Z,36.57
2018-11-21T09:43:14.633Z,37.07
2018-11-21T09:45:43.411Z,35.40
2018-11-21T09:48:11.829Z,34.17
2018-11-21T09:50:45.969Z,36.07
2018-11-21T09:53:16.258Z,36.10
2018-11-21T09:55:44.704Z,34.87
2018-11-21T09:58:13.612Z,37.07
2018-11-21T10:01:19.056Z,31.80
2018-11-21T10:03:48.265Z,35.90
2018-11-21T10:06:21.520Z,31.43
2018-11-21T10:08:52.636Z,32.77
2018-11-21T10:11:24.575Z,36.40
2018-11-21T10:13:53.102Z,36.50
2018-11-21T10:16:21.927Z,34.77
2018-11-21T10:18:54.204Z,36.33
2018-11-21T10:21:28.180Z,33.60
2018-11-21T10:23:54.427Z,32.93
2018-11-21T10:26:22.918Z,32.63
2018-11-21T10:28:52.158Z,33.93
2018-11-21T10:31:20.695Z,32.73
2018-11-21T10:33:49.220Z,36.43
2018-11-21T10:36:17.643Z,32.77
2018-11-21T10:38:46.234Z,34.90
2018-11-21T10:41:14.683Z,32.07
2018-11-21T10:43:43.860Z,31.57
2018-11-21T10:46:12.567Z,36.63
2018-11-21T10:48:41.023Z,35.30
2018-11-21T10:51:09.467Z,35.53
2018-11-21T10:53:38.008Z,38.00
2018-11-21T10:56:06.883Z,38.47
2018-11-21T10:58:35.376Z,35.23
2018-11-21T11:01:21.638Z,36.30
2018-11-21T11:03:55.449Z,33.00
2018-11-21T11:06:41.879Z,32.80
2018-11-21T11:09:33.750Z,36.23
2018-11-21T11:12:30.291Z,32.00
2018-11-21T11:15:16.495Z,32.07
2018-11-21T11:18:07.135Z,29.10
2018-11-21T11:21:01.111Z,28.80
2018-11-21T11:23:48.709Z,28.77
2018-11-21T11:26:30.837Z,25.73
2018-11-21T11:29:27.819Z,26.80
2018-11-21T11:32:23.966Z,28.60
2018-11-21T11:35:20.456Z,25.83
2018-11-21T11:38:09.003Z,25.70
2018-11-21T11:41:09.608Z,27.40
2018-11-21T11:44:02.918Z,24.53
2018-11-21T11:46:40.804Z,24.50
2018-11-21T11:49:28.384Z,28.17
2018-11-21T11:52:16.046Z,28.10
2018-11-21T11:55:12.656Z,26.30
2018-11-21T11:57:56.470Z,25.70
2018-11-21T12:00:35.024Z,25.63
2018-11-21T12:03:26.060Z,25.90
2018-11-21T12:06:12.091Z,26.57
2018-11-21T12:08:52.522Z,24.43
2018-11-21T12:11:38.556Z,28.90
2018-11-21T12:14:27.797Z,24.63
2018-11-21T12:17:26.523Z,24.07
2018-11-21T12:20:29.226Z,25.33
2018-11-21T12:23:15.857Z,25.83
2018-11-21T12:26:10.610Z,27.30
2018-11-21T12:29:01.060Z,27.50
2018-11-21T12:31:49.691Z,24.00
2018-11-21T12:34:26.375Z,26.67
2018-11-21T12:37:12.815Z,24.77
2018-11-21T12:39:55.489Z,27.50
2018-11-21T12:42:41.594Z,23.90
2018-11-21T12:45:27.890Z,26.70
2018-11-21T12:48:14.038Z,24.03
2018-11-21T12:51:01.716Z,25.40
2018-11-21T12:53:48.084Z,26.43
2018-11-21T12:56:34.723Z,23.13
2018-11-21T12:59:25.356Z,28.50
2018-11-21T13:02:22.106Z,26.07
2018-11-21T13:05:18.656Z,25.27
2018-11-21T13:08:05.034Z,24.23
2018-11-21T13:10:45.802Z,24.67
2018-11-21T13:13:32.098Z,24.70
2018-11-21T13:16:13.983Z,27.80
2018-11-21T13:19:04.116Z,27.03
2018-11-21T13:21:50.480Z,29.13
2018-11-21T13:24:47.338Z,30.40
2018-11-21T13:27:33.497Z,30.97
2018-11-21T13:30:39.252Z,32.07
2018-11-21T13:33:34.241Z,31.73
2018-11-21T13:36:30.998Z,33.67
2018-11-21T13:39:33.577Z,32.97
2018-11-21T13:42:18.184Z,32.53
2018-11-21T13:45:14.881Z,29.83
2018-11-21T13:48:01.175Z,35.23
2018-11-21T13:50:54.593Z,33.67
2018-11-21T13:53:53.281Z,33.13
2018-11-21T13:56:21.814Z,29.73
2018-11-21T13:58:50.303Z,33.10
2018-11-21T14:01:18.758Z,28.87
2018-11-21T14:03:47.227Z,24.30
2018-11-21T14:06:15.663Z,24.90
2018-11-21T14:08:44.103Z,24.83
2018-11-21T14:11:12.663Z,24.23
2018-11-21T14:13:41.204Z,24.27
2018-11-21T14:16:09.671Z,23.03
2018-11-21T14:18:38.124Z,25.53
2018-11-21T14:21:06.551Z,20.70
2018-11-21T14:23:35.046Z,20.90
2018-11-21T14:26:03.549Z,22.57
2018-11-21T14:28:31.951Z,24.37
2018-11-21T14:31:00.395Z,25.40
2018-11-21T14:33:28.901Z,22.00
2018-11-21T14:35:57.380Z,37.97
2018-11-21T14:38:25.859Z,42.37
2018-11-21T14:40:54.313Z,46.87
2018-11-21T14:43:22.749Z,47.80
2018-11-21T14:45:51.162Z,46.43
2018-11-21T14:48:19.655Z,49.37
2018-11-21T14:50:48.086Z,47.87
2018-11-21T14:53:16.547Z,48.47
2018-11-21T14:55:44.993Z,50.70
2018-11-21T14:58:13.507Z,47.27
2018-11-21T15:00:41.934Z,49.97
2018-11-21T15:03:10.521Z,52.03
2018-11-21T15:05:38.963Z,52.20
2018-11-21T15:08:07.410Z,48.17
2018-11-21T15:10:35.854Z,51.00
2018-11-21T15:13:04.306Z,49.20
2018-11-21T15:15:32.744Z,51.60
2018-11-21T15:18:01.259Z,46.70
2018-11-21T15:20:29.697Z,48.83
2018-11-21T15:22:58.221Z,51.80
2018-11-21T15:25:26.737Z,52.10
2018-11-21T15:27:55.198Z,51.20
2018-11-21T15:30:28.116Z,46.40
2018-11-21T15:32:56.564Z,51.67
2018-11-21T15:35:25.095Z,49.33
2018-11-21T15:37:53.518Z,47.37
2018-11-21T15:40:23.153Z,51.17
2018-11-21T15:42:51.617Z,49.87
2018-11-21T15:45:21.434Z,48.77
2018-11-21T15:47:54.668Z,48.80
2018-11-21T15:50:23.069Z,46.97
2018-11-21T15:52:53.115Z,44.80
2018-11-21T15:55:20.401Z,49.10
2018-11-21T15:57:48.886Z,44.70
2018-11-21T16:00:19.438Z,48.27
2018-11-21T16:02:48.917Z,48.97
2018-11-21T16:05:17.978Z,47.63
2018-11-21T16:07:46.527Z,49.93
2018-11-21T16:10:18.929Z,42.93
2018-11-21T16:12:45.010Z,43.47
2018-11-21T16:15:16.231Z,47.50
2018-11-21T16:17:44.709Z,45.53
2018-11-21T16:20:14.547Z,46.37
2018-11-21T16:22:42.958Z,44.27
2018-11-21T16:25:13.227Z,45.23
2018-11-21T16:27:42.403Z,51.17
2018-11-21T16:30:12.908Z,50.77
2018-11-21T16:32:41.844Z,50.03
2018-11-21T16:35:10.698Z,47.50
2018-11-21T16:37:39.929Z,50.23
2018-11-21T16:40:13.490Z,49.20
2018-11-21T16:42:42.125Z,47.57
2018-11-21T16:45:12.611Z,49.00
2018-11-21T16:47:41.112Z,47.60
2018-11-21T16:50:12.390Z,49.50
2018-11-21T16:52:40.928Z,48.20
2018-11-21T16:55:11.339Z,49.13
2018-11-21T16:57:39.793Z,51.47
2018-11-21T17:00:13.885Z,51.20
2018-11-21T17:02:42.311Z,54.17
2018-11-21T17:05:12.534Z,55.13
2018-11-21T17:07:41.593Z,49.80
2018-11-21T17:10:11.950Z,54.83
2018-11-21T17:12:40.858Z,54.03
2018-11-21T17:15:11.417Z,51.20
2018-11-21T17:17:39.923Z,49.40
2018-11-21T17:20:11.301Z,52.63
2018-11-21T17:22:40.052Z,54.10
2018-11-21T17:25:11.552Z,51.23
2018-11-21T17:27:40.219Z,51.80
2018-11-21T17:30:10.869Z,51.77
2018-11-21T17:32:39.359Z,49.57
2018-11-21T17:35:08.724Z,51.10
2018-11-21T17:37:37.368Z,55.37
2018-11-21T17:40:10.124Z,56.73
2018-11-21T17:42:38.664Z,56.90
2018-11-21T17:45:08.364Z,57.97
2018-11-21T17:47:36.775Z,57.23
2018-11-21T17:50:07.406Z,58.20
2018-11-21T17:52:35.894Z,61.87
2018-11-21T17:55:05.005Z,62.57
2018-11-21T17:57:33.426Z,62.83
2018-11-21T18:00:01.921Z,61.50
2018-11-21T18:02:30.435Z,64.33
2018-11-21T18:04:58.893Z,65.67
2018-11-21T18:07:27.359Z,67.40
2018-11-21T18:09:55.865Z,69.03
2018-11-21T18:12:24.311Z,68.83
2018-11-21T18:14:52.853Z,65.23
2018-11-21T18:17:21.314Z,65.03
2018-11-21T18:19:49.794Z,68.43
2018-11-21T18:22:18.242Z,72.03
2018-11-21T18:24:46.723Z,66.73
2018-11-21T18:27:15.204Z,66.07
2018-11-21T18:29:43.679Z,62.60
2018-11-21T18:32:12.147Z,68.20
2018-11-21T18:34:40.647Z,67.67
2018-11-21T18:37:09.105Z,64.93
2018-11-21T18:39:37.609Z,72.00
2018-11-21T18:42:06.201Z,67.60
2018-11-21T18:44:34.694Z,67.30
2018-11-21T18:47:03.177Z,67.70
2018-11-21T18:49:31.672Z,70.57
2018-11-21T18:52:00.126Z,68.80
2018-11-21T18:54:28.562Z,72.13
2018-11-21T18:57:08.571Z,67.67
2018-11-21T18:59:52.392Z,68.80
2018-11-21T19:02:20.897Z,64.23
2018-11-21T19:04:49.385Z,65.97
2018-11-21T19:07:17.824Z,69.50
2018-11-21T19:09:46.307Z,64.60
2018-11-21T19:12:14.846Z,66.53
2018-11-21T19:14:43.323Z,66.47
2018-11-21T19:17:11.787Z,63.73
2018-11-21T19:19:40.257Z,63.47
2018-11-21T19:22:08.750Z,56.00
2018-11-21T19:24:37.206Z,62.67
2018-11-21T19:27:05.978Z,62.63
2018-11-21T19:29:34.493Z,60.97
2018-11-21T19:32:03.005Z,60.87
2018-11-21T19:34:31.492Z,64.87
2018-11-21T19:37:00.015Z,63.87
2018-11-21T19:39:28.536Z,61.27
2018-11-21T19:41:56.972Z,67.43
2018-11-21T19:44:25.448Z,63.03
2018-11-21T19:46:53.912Z,61.43
2018-11-21T19:49:22.397Z,59.77
2018-11-21T19:51:50.878Z,61.93
2018-11-21T19:54:19.392Z,58.03
2018-11-21T19:56:47.939Z,59.57
2018-11-21T19:59:16.416Z,66.13
2018-11-21T20:01:44.920Z,60.87
2018-11-21T20:04:13.418Z,64.57
2018-11-21T20:06:41.929Z,63.80
2018-11-21T20:09:11.803Z,60.77
2018-11-21T20:11:40.468Z,60.67
2018-11-21T20:14:08.905Z,58.83
2018-11-21T20:16:37.433Z,59.27
2018-11-21T20:19:06.016Z,62.97
2018-11-21T20:21:34.659Z,66.60
2018-11-21T20:24:03.146Z,62.13
2018-11-21T20:26:31.680Z,60.23
2018-11-21T20:29:00.530Z,60.97
2018-11-21T20:31:28.983Z,61.13
2018-11-21T20:33:57.484Z,59.37
2018-11-21T20:36:25.968Z,61.80
2018-11-21T20:38:54.510Z,64.27
2018-11-21T20:41:22.971Z,60.20
2018-11-21T20:43:51.464Z,60.20
2018-11-21T20:46:19.926Z,66.57
2018-11-21T20:48:48.439Z,59.87
2018-11-21T20:51:16.931Z,64.50
2018-11-21T20:53:45.429Z,60.10
2018-11-21T20:56:13.916Z,58.10
2018-11-21T20:58:42.415Z,56.07
2018-11-21T21:01:10.876Z,60.83
2018-11-21T21:03:39.365Z,65.50
2018-11-21T21:06:07.887Z,64.60
2018-11-21T21:08:36.387Z,66.17
2018-11-21T21:11:05.161Z,62.00
2018-11-21T21:13:33.660Z,59.27
2018-11-21T21:16:02.135Z,63.90
2018-11-21T21:18:30.647Z,64.90
2018-11-21T21:20:59.190Z,64.30
2018-11-21T21:23:27.699Z,60.07
2018-11-21T21:25:56.071Z,68.23
2018-11-21T21:28:24.585Z,60.57
2018-11-21T21:30:53.101Z,63.43
2018-11-21T21:33:21.585Z,60.67
2018-11-21T21:35:50.026Z,58.57
2018-11-21T21:38:18.580Z,60.60
2018-11-21T21:40:47.012Z,60.73
2018-11-21T21:43:15.444Z,58.83
2018-11-21T21:45:43.940Z,64.87
2018-11-21T21:48:12.401Z,59.90
2018-11-21T21:50:40.871Z,59.80
2018-11-21T21:53:09.369Z,61.47
2018-11-21T21:55:37.863Z,62.97
2018-11-21T21:58:06.434Z,59.13
2018-11-21T22:00:34.896Z,60.40
2018-11-21T22:03:03.330Z,63.97
2018-11-21T22:05:32.530Z,60.40
2018-11-21T22:08:01.110Z,61.77
2018-11-21T22:10:29.559Z,65.60
2018-11-21T22:12:58.071Z,61.80
2018-11-21T22:15:27.880Z,61.80
2018-11-21T22:17:58.003Z,63.67
2018-11-21T22:20:26.472Z,62.07
2018-11-21T22:22:55.260Z,62.57
2018-11-21T22:25:24.263Z,67.97
2018-11-21T22:27:52.801Z,64.80
2018-11-21T22:30:21.869Z,60.57
2018-11-21T22:32:51.199Z,61.77
2018-11-21T22:35:24.966Z,64.50
2018-11-21T22:37:51.407Z,63.27
2018-11-21T22:40:18.613Z,68.00
2018-11-21T22:42:47.145Z,65.50
2018-11-21T22:45:17.025Z,64.37
2018-11-21T22:47:45.510Z,64.63
2018-11-21T22:50:15.617Z,67.03
2018-11-21T22:52:44.072Z,62.90
2018-11-21T22:55:13.413Z,65.47
2018-11-21T22:57:42.522Z,64.17
2018-11-21T23:00:19.087Z,64.57
2018-11-21T23:02:47.588Z,62.67
2018-11-21T23:05:16.059Z,62.17
2018-11-21T23:07:45.016Z,62.67
2018-11-21T23:10:14.650Z,62.27
2018-11-21T23:12:43.096Z,61.23
2018-11-21T23:15:12.429Z,65.90
2018-11-21T23:17:40.840Z,63.83
2018-11-21T23:20:11.642Z,65.47
2018-11-21T23:22:40.095Z,68.63
2018-11-21T23:25:09.652Z,62.60
2018-11-21T23:27:38.416Z,64.07
2018-11-21T23:30:12.514Z,65.07
2018-11-21T23:32:40.967Z,65.37
2018-11-21T23:35:10.166Z,59.70
2018-11-21T23:37:38.767Z,62.47
2018-11-21T23:40:09.117Z,62.77
2018-11-21T23:42:38.124Z,60.47
2018-11-21T23:45:07.972Z,65.40
2018-11-21T23:47:36.410Z,63.37
2018-11-21T23:50:05.008Z,64.90
2018-11-21T23:52:33.467Z,62.80
2018-11-21T23:55:01.901Z,62.30
2018-11-21T23:57:30.361Z,65.50
2018-11-21T23:59:58.924Z,63.00
